Time;durP1;ratioP1;P1;durP2;ratioP2;P2;SDS_P1;SDS_P2;PMS_P1;PMS_P2;Temp;Humidity;BMP_temperature;BMP_pressure;BME280_temperature;BME280_humidity;BME280_pressure;Samples;Min_cycle;Max_cycle;Signal;HPM_P1;HPM_P2
2021/04/02 00:00:56;;;;;;;10.80;9.83;;;;;;;7.19;74.32;100461.27;122166;1152;23329;-76
2021/04/02 00:03:33;;;;;;;8.68;8.00;;;;;;;7.17;74.13;100463.23;122086;1152;23339;-76
2021/04/02 00:06:05;;;;;;;10.48;9.60;;;;;;;7.13;74.37;100465.33;122119;1152;22545;-77
2021/04/02 00:08:33;;;;;;;9.45;8.70;;;;;;;7.13;74.49;100462.70;122118;1152;22541;-77
2021/04/02 00:11:08;;;;;;;9.45;8.65;;;;;;;7.12;74.48;100471.52;122016;1152;22551;-77
2021/04/02 00:13:44;;;;;;;9.60;8.80;;;;;;;7.13;74.66;100467.95;122410;1152;23467;-77
2021/04/02 00:16:16;;;;;;;9.00;8.20;;;;;;;7.14;74.67;100471.40;122352;1152;22584;-76
2021/04/02 00:18:45;;;;;;;;;;;;;;;7.08;74.29;100470.98;122190;1156;22540;-77
2021/04/02 00:21:15;;;;;;;8.68;7.95;;;;;;;7.07;74.65;100469.34;122104;1155;21749;-76
2021/04/02 00:23:44;;;;;;;7.90;7.18;;;;;;;7.06;74.47;100465.06;122187;1152;24732;-77
2021/04/02 00:26:21;;;;;;;7.35;6.58;;;;;;;7.00;74.29;100456.92;122154;1152;22552;-76
2021/04/02 00:28:54;;;;;;;7.30;6.63;;;;;;;6.95;74.08;100457.33;122267;1154;22539;-76
2021/04/02 00:31:23;;;;;;;7.18;6.58;;;;;;;6.89;74.48;100460.52;122172;1152;22963;-76
2021/04/02 00:33:51;;;;;;;7.75;7.08;;;;;;;6.84;74.36;100450.45;122005;1155;22563;-76
2021/04/02 00:36:19;;;;;;;7.70;7.00;;;;;;;6.83;74.38;100461.93;121738;1155;22565;-77
2021/04/02 00:38:47;;;;;;;7.18;6.58;;;;;;;6.84;74.26;100460.95;121554;1156;22774;-77
2021/04/02 00:41:19;;;;;;;6.35;5.75;;;;;;;6.80;74.14;100459.58;121560;1156;22615;-76
2021/04/02 00:43:50;;;;;;;5.33;4.93;;;;;;;6.74;73.75;100477.69;121158;1161;22579;-77
2021/04/02 00:46:23;;;;;;;6.03;5.50;;;;;;;6.70;74.06;100478.95;121200;1159;22722;-77
2021/04/02 00:48:51;;;;;;;6.25;5.40;;;;;;;6.67;74.15;100481.84;121137;1161;22571;-76
2021/04/02 00:51:26;;;;;;;5.03;4.53;;;;;;;6.59;73.74;100485.15;121197;1158;22570;-76
2021/04/02 00:53:56;;;;;;;6.20;5.60;;;;;;;6.50;73.37;100473.70;121485;1159;24725;-76
2021/04/02 00:56:24;;;;;;;5.90;5.25;;;;;;;6.45;73.28;100494.27;121561;1155;23355;-76
2021/04/02 00:58:53;;;;;;;5.10;4.63;;;;;;;6.40;73.00;100488.62;121989;1155;22666;-76
2021/04/02 01:01:21;;;;;;;5.40;4.80;;;;;;;6.35;73.14;100486.39;121567;1156;22559;-76
2021/04/02 01:03:49;;;;;;;6.33;5.83;;;;;;;6.33;73.16;100484.86;122041;1155;23425;-76
2021/04/02 01:06:25;;;;;;;6.65;6.05;;;;;;;6.29;73.03;100488.73;121995;1156;22651;-75
2021/04/02 01:08:56;;;;;;;5.80;5.30;;;;;;;6.23;72.89;100491.89;121703;1155;22545;-76
2021/04/02 01:11:27;;;;;;;6.13;5.53;;;;;;;6.20;73.00;100490.39;122002;1155;22634;-76
2021/04/02 01:13:59;;;;;;;6.00;5.50;;;;;;;6.16;72.57;100502.09;121755;1155;22559;-76
2021/04/02 01:16:35;;;;;;;6.25;5.65;;;;;;;6.15;73.07;100510.11;122049;1155;22561;-75
2021/04/02 01:19:06;;;;;;;4.45;4.05;;;;;;;6.17;72.89;100519.52;122095;1154;23322;-75
2021/04/02 01:22:07;;;;;;;4.00;3.60;;;;;;;6.13;72.76;100518.96;122408;1152;24393;-75
2021/04/02 01:25:11;;;;;;;4.27;3.93;;;;;;;6.07;72.51;100523.91;122135;1152;22926;-75
2021/04/02 01:28:13;;;;;;;3.73;3.40;;;;;;;6.04;72.54;100529.42;122101;1152;22534;-74
2021/04/02 01:30:42;;;;;;;3.95;3.63;;;;;;;6.00;72.00;100525.39;121663;1155;22566;-75
2021/04/02 01:33:12;;;;;;;4.58;3.53;;;;;;;6.00;72.13;100528.01;121729;1155;22868;-76
2021/04/02 01:35:42;;;;;;;4.15;3.85;;;;;;;5.96;71.95;100535.31;121743;1155;23016;-75
2021/04/02 01:38:14;;;;;;;5.03;3.73;;;;;;;5.93;71.96;100534.75;122016;1155;22937;-76
2021/04/02 01:40:49;;;;;;;4.65;4.00;;;;;;;5.93;72.20;100548.72;122011;1155;22624;-75
2021/04/02 01:43:29;;;;;;;4.38;3.98;;;;;;;5.90;71.91;100552.40;121490;1158;22583;-75
2021/04/02 01:45:59;;;;;;;7.00;4.43;;;;;;;5.84;71.39;100544.23;121214;1158;22726;-75
2021/04/02 01:48:28;;;;;;;3.50;3.20;;;;;;;5.76;71.10;100546.67;121537;1157;22578;-76
2021/04/02 01:50:58;;;;;;;3.83;3.45;;;;;;;5.66;71.21;100546.63;121683;1155;23103;-75
2021/04/02 01:53:33;;;;;;;3.53;3.23;;;;;;;5.54;70.83;100555.55;121684;1155;23581;-74
2021/04/02 01:56:03;;;;;;;3.45;3.10;;;;;;;5.43;70.65;100553.81;121467;1158;22584;-75
2021/04/02 01:58:41;;;;;;;3.95;3.45;;;;;;;5.34;70.95;100555.44;121232;1158;24728;-75
2021/04/02 02:01:11;;;;;;;4.00;3.38;;;;;;;5.25;70.43;100556.20;121325;1155;22576;-75
2021/04/02 02:03:47;;;;;;;3.30;3.00;;;;;;;5.17;70.57;100562.09;121718;1155;24444;-75
2021/04/02 02:06:17;;;;;;;4.03;3.63;;;;;;;5.11;70.38;100572.25;121457;1159;23345;-75
2021/04/02 02:08:57;;;;;;;4.20;3.73;;;;;;;5.10;69.76;100578.45;121451;1158;22646;-75
2021/04/02 02:11:30;;;;;;;3.50;3.20;;;;;;;5.10;70.75;100575.83;121484;1159;22615;-75
2021/04/02 02:14:09;;;;;;;4.05;3.65;;;;;;;5.08;70.27;100577.73;121561;1155;22657;-76
2021/04/02 02:16:48;;;;;;;4.70;4.30;;;;;;;5.05;70.42;100589.28;122000;1155;22849;-77
2021/04/02 02:19:24;;;;;;;4.98;4.55;;;;;;;5.06;70.56;100583.08;122023;1155;24709;-77
2021/04/02 02:21:57;;;;;;;6.53;5.40;;;;;;;5.09;70.56;100588.06;121737;1155;22597;-76
2021/04/02 02:24:29;;;;;;;7.00;6.20;;;;;;;5.12;70.69;100594.84;121685;1155;24525;-76
2021/04/02 02:26:58;;;;;;;5.87;5.27;;;;;;;5.16;70.82;100593.63;121488;1158;22574;-77
2021/04/02 02:29:27;;;;;;;7.23;6.50;;;;;;;5.22;70.64;100593.13;121236;1157;22566;-77
2021/04/02 02:31:56;;;;;;;5.78;5.20;;;;;;;5.23;70.71;100597.43;121654;1155;22573;-77
2021/04/02 02:34:28;;;;;;;6.65;6.03;;;;;;;5.27;70.84;100600.63;121635;1158;23061;-76
2021/04/02 02:37:00;;;;;;;6.18;5.63;;;;;;;5.28;70.86;100600.48;121692;1155;22725;-76
2021/04/02 02:39:32;;;;;;;6.18;5.58;;;;;;;5.28;70.88;100594.41;121435;1158;22575;-76
2021/04/02 02:42:07;;;;;;;5.88;4.75;;;;;;;5.30;71.10;100602.95;121151;1158;22638;-76
2021/04/02 02:44:36;;;;;;;5.60;5.10;;;;;;;5.30;70.72;100602.95;121161;1158;22688;-76
2021/04/02 02:47:09;;;;;;;7.53;6.83;;;;;;;5.30;70.71;100603.81;121482;1159;22635;-76
2021/04/02 02:49:44;;;;;;;6.25;4.98;;;;;;;5.26;70.51;100601.56;121202;1158;23358;-75
2021/04/02 02:52:14;;;;;;;6.33;5.10;;;;;;;5.22;70.56;100605.39;121490;1159;22626;-76
2021/04/02 02:54:44;;;;;;;6.68;5.95;;;;;;;5.19;70.38;100615.16;121176;1161;22574;-76
2021/04/02 02:57:17;;;;;;;6.48;4.78;;;;;;;5.15;70.49;100628.64;121186;1158;22557;-75
2021/04/02 02:59:49;;;;;;;4.55;4.10;;;;;;;5.07;70.23;100621.42;121139;1160;22552;-77
2021/04/02 03:02:19;;;;;;;;;;;;;;;4.94;69.86;100616.34;121565;1161;22563;-76
2021/04/02 03:04:50;;;;;;;5.83;4.53;;;;;;;4.86;70.22;100612.68;121460;1160;23053;-75
2021/04/02 03:07:21;;;;;;;5.60;4.60;;;;;;;4.83;70.33;100615.55;121473;1158;22565;-75
2021/04/02 03:09:51;;;;;;;6.13;5.25;;;;;;;4.83;70.24;100616.41;121612;1155;24692;-76
2021/04/02 03:12:21;;;;;;;5.13;4.40;;;;;;;4.83;70.38;100631.25;121554;1155;25196;-76
2021/04/02 03:14:52;;;;;;;6.10;4.65;;;;;;;4.78;69.95;100630.80;121621;1155;22570;-76
2021/04/02 03:17:23;;;;;;;7.68;4.60;;;;;;;4.72;70.19;100626.89;121498;1158;25355;-76
2021/04/02 03:19:54;;;;;;;7.35;4.78;;;;;;;4.70;70.17;100626.20;121093;1160;22588;-76
2021/04/02 03:22:29;;;;;;;10.20;5.87;;;;;;;4.67;70.17;100629.06;121142;1161;23010;-75
2021/04/02 03:25:14;;;;;;;5.38;4.25;;;;;;;4.67;70.38;100621.20;121083;1161;25263;-75
2021/04/02 03:27:48;;;;;;;9.08;5.40;;;;;;;4.67;70.26;100626.44;121097;1161;23250;-77
2021/04/02 03:30:26;;;;;;;6.80;4.90;;;;;;;4.61;70.31;100624.31;121269;1159;24854;-77
2021/04/02 03:33:18;;;;;;;7.10;5.00;;;;;;;4.58;70.14;100629.78;121452;1159;22574;-76
2021/04/02 03:35:58;;;;;;;5.00;3.85;;;;;;;4.55;70.38;100627.41;121468;1159;24102;-76
2021/04/02 03:38:35;;;;;;;6.03;4.40;;;;;;;4.50;70.24;100619.94;121628;1158;22561;-76
2021/04/02 03:41:10;;;;;;;5.30;4.80;;;;;;;4.48;70.31;100619.22;121215;1155;22584;-76
2021/04/02 03:43:43;;;;;;;9.58;5.73;;;;;;;4.46;70.14;100621.11;121694;1155;22560;-77
2021/04/02 03:46:14;;;;;;;9.55;6.00;;;;;;;4.41;70.00;100615.43;121677;1155;22555;-76
2021/04/02 03:48:44;;;;;;;8.57;7.03;;;;;;;4.35;70.05;100613.30;121740;1156;24699;-77
2021/04/02 03:51:21;;;;;;;5.75;5.18;;;;;;;4.33;70.04;100621.28;121675;1156;23075;-77
2021/04/02 03:54:01;;;;;;;5.75;5.23;;;;;;;4.25;69.39;100614.02;121738;1154;22571;-76
2021/04/02 03:56:34;;;;;;;6.40;5.80;;;;;;;4.16;69.83;100609.50;122004;1155;24696;-76
2021/04/02 03:59:06;;;;;;;7.30;6.60;;;;;;;4.10;69.91;100612.62;121739;1155;22553;-77
2021/04/02 04:01:45;;;;;;;6.05;5.53;;;;;;;4.07;69.88;100607.63;121654;1155;22649;-76
2021/04/02 04:04:15;;;;;;;5.93;5.43;;;;;;;4.03;70.12;100616.63;121641;1155;22554;-76
2021/04/02 04:06:52;;;;;;;6.63;6.00;;;;;;;4.01;70.09;100608.09;122034;1152;22536;-79
2021/04/02 04:09:28;;;;;;;6.43;5.83;;;;;;;3.99;70.00;100616.04;122155;1154;22595;-75
2021/04/02 04:12:07;;;;;;;8.23;6.20;;;;;;;3.93;70.00;100620.91;122105;1154;23447;-75
2021/04/02 04:14:46;;;;;;;9.50;6.08;;;;;;;3.91;70.30;100622.83;122092;1152;23355;-74
2021/04/02 04:17:20;;;;;;;10.60;9.58;;;;;;;3.89;70.20;100619.48;122113;1152;22630;-74
2021/04/02 04:19:53;;;;;;;9.25;8.35;;;;;;;3.87;70.26;100627.46;122383;1152;22595;-76
2021/04/02 04:22:27;;;;;;;6.78;6.10;;;;;;;3.88;70.23;100634.34;122138;1155;22541;-74
2021/04/02 04:24:57;;;;;;;8.48;7.30;;;;;;;3.87;70.47;100642.31;122098;1155;24686;-74
2021/04/02 04:27:27;;;;;;;7.98;7.28;;;;;;;3.91;70.71;100638.52;122114;1152;22538;-75
2021/04/02 04:29:56;;;;;;;10.37;9.03;;;;;;;3.95;70.71;100634.70;122201;1154;22528;-75
2021/04/02 04:32:27;;;;;;;12.15;8.38;;;;;;;3.97;70.69;100636.26;122190;1152;23326;-75
2021/04/02 04:34:56;;;;;;;9.15;8.08;;;;;;;3.97;70.75;100630.20;122152;1155;22537;-74
2021/04/02 04:37:26;;;;;;;9.10;7.20;;;;;;;3.96;70.65;100639.80;122370;1152;22552;-74
2021/04/02 04:39:56;;;;;;;11.48;8.38;;;;;;;3.91;70.21;100641.95;122131;1154;22541;-74
2021/04/02 04:42:26;;;;;;;8.85;7.00;;;;;;;3.86;70.55;100651.08;122140;1152;22545;-73
2021/04/02 04:44:56;;;;;;;10.45;8.60;;;;;;;3.82;70.63;100654.89;122105;1153;25180;-74
2021/04/02 04:47:25;;;;;;;10.68;8.53;;;;;;;3.83;71.10;100659.16;121687;1155;22540;-74
2021/04/02 04:49:53;;;;;;;16.10;10.00;;;;;;;3.84;70.98;100650.39;121597;1155;22548;-74
2021/04/02 04:52:23;;;;;;;20.35;11.13;;;;;;;3.88;71.02;100654.42;121593;1155;22552;-75
2021/04/02 04:54:54;;;;;;;10.95;8.53;;;;;;;3.93;70.92;100657.50;121630;1155;22596;-75
2021/04/02 04:57:24;;;;;;;8.68;7.78;;;;;;;3.92;70.91;100666.30;121982;1155;24695;-77
2021/04/02 04:59:55;;;;;;;13.78;8.48;;;;;;;3.90;70.66;100663.82;121617;1155;24572;-76
2021/04/02 05:02:23;;;;;;;13.23;9.28;;;;;;;3.88;70.67;100662.27;121886;1155;22563;-77
2021/04/02 05:04:52;;;;;;;10.85;8.63;;;;;;;3.88;70.53;100664.88;121712;1154;24693;-76
2021/04/02 05:07:23;;;;;;;11.53;9.28;;;;;;;3.86;70.58;100670.20;122248;1152;22553;-76
2021/04/02 05:09:56;;;;;;;10.07;9.17;;;;;;;3.82;70.84;100670.56;122197;1152;22583;-74
2021/04/02 05:12:29;;;;;;;10.60;8.93;;;;;;;3.80;70.50;100677.67;122307;1152;24427;-75
2021/04/02 05:15:00;;;;;;;9.93;8.65;;;;;;;3.76;70.33;100675.30;122193;1154;24693;-74
2021/04/02 05:17:29;;;;;;;8.35;6.98;;;;;;;3.74;70.22;100682.44;122199;1155;24693;-74
2021/04/02 05:19:58;;;;;;;7.15;6.25;;;;;;;3.72;70.03;100684.32;122204;1152;24686;-74
2021/04/02 05:22:29;;;;;;;12.08;9.90;;;;;;;3.73;70.55;100682.53;122277;1152;22544;-74
2021/04/02 05:24:57;;;;;;;10.43;9.30;;;;;;;3.82;70.72;100687.08;122245;1152;22605;-73
2021/04/02 05:27:26;;;;;;;11.73;10.40;;;;;;;3.92;70.68;100681.98;122327;1152;22533;-76
2021/04/02 05:29:58;;;;;;;10.25;9.25;;;;;;;3.99;70.66;100683.17;122130;1152;22524;-76
2021/04/02 05:32:26;;;;;;;7.83;7.13;;;;;;;4.04;70.14;100686.28;122168;1152;22556;-76
2021/04/02 05:34:57;;;;;;;6.45;5.85;;;;;;;4.06;69.79;100691.38;122001;1155;22567;-77
2021/04/02 05:37:26;;;;;;;7.68;6.10;;;;;;;4.00;69.58;100683.08;121703;1156;22552;-77
2021/04/02 05:39:54;;;;;;;6.68;6.03;;;;;;;3.99;69.59;100693.63;122018;1155;22773;-75
2021/04/02 05:42:27;;;;;;;6.20;5.60;;;;;;;4.00;69.44;100693.53;121692;1155;22560;-77
2021/04/02 05:44:59;;;;;;;6.60;5.75;;;;;;;3.94;69.08;100701.84;121681;1155;22562;-77
2021/04/02 05:47:30;;;;;;;6.00;5.50;;;;;;;3.91;69.04;100693.40;122014;1155;22566;-76
2021/04/02 05:50:01;;;;;;;8.75;6.13;;;;;;;3.91;68.98;100696.02;121543;1158;24719;-77
2021/04/02 05:52:30;;;;;;;8.68;7.58;;;;;;;3.94;69.21;100703.63;121532;1158;24475;-75
2021/04/02 05:55:03;;;;;;;7.80;7.10;;;;;;;3.99;69.14;100704.09;121223;1158;23444;-75
2021/04/02 05:57:31;;;;;;;10.65;8.10;;;;;;;4.07;69.37;100696.52;121225;1158;24875;-75
2021/04/02 06:00:01;;;;;;;8.15;7.35;;;;;;;4.15;69.17;100706.38;121625;1155;22549;-78
2021/04/02 06:02:43;;;;;;;9.97;8.10;;;;;;;4.15;68.87;100707.20;121693;1155;22577;-78
2021/04/02 06:05:12;;;;;;;8.65;7.75;;;;;;;4.18;68.74;100711.38;121626;1155;22573;-78
2021/04/02 06:07:42;;;;;;;9.55;8.43;;;;;;;4.22;68.81;100715.41;121690;1155;23339;-76
2021/04/02 06:10:12;;;;;;;12.38;10.63;;;;;;;4.24;68.18;100709.12;121618;1157;22557;-82
2021/04/02 06:12:41;;;;;;;9.40;8.40;;;;;;;4.30;68.85;100706.96;121451;1158;22600;-77
2021/04/02 06:15:11;;;;;;;11.63;9.30;;;;;;;4.35;68.66;100710.90;121199;1158;22586;-76
2021/04/02 06:18:11;;;;;;;11.00;9.78;;;;;;;4.38;68.42;100710.66;121603;1158;22618;-76
2021/04/02 06:20:44;;;;;;;12.48;10.60;;;;;;;4.42;68.42;100714.70;121573;1158;23597;-76
2021/04/02 06:23:26;;;;;;;11.93;10.47;;;;;;;4.42;68.11;100712.08;121130;1161;22620;-77
2021/04/02 06:26:04;;;;;;;13.00;10.70;;;;;;;4.43;68.03;100716.38;120955;1161;22609;-77
2021/04/02 06:28:35;;;;;;;14.90;10.75;;;;;;;4.47;67.94;100714.36;120711;1164;22594;-76
2021/04/02 06:31:09;;;;;;;12.70;10.95;;;;;;;4.53;68.05;100713.03;120572;1166;22650;-76
2021/04/02 06:34:06;;;;;;;13.75;12.03;;;;;;;4.55;68.13;100714.58;120702;1164;23214;-76
2021/04/02 06:36:34;;;;;;;11.55;9.60;;;;;;;4.54;67.65;100719.95;120859;1164;22598;-77
2021/04/02 06:39:06;;;;;;;19.00;16.85;;;;;;;4.57;67.60;100717.09;120610;1167;22712;-77
2021/04/02 06:41:36;;;;;;;16.95;13.55;;;;;;;4.58;67.54;100716.95;120635;1164;22614;-77
2021/04/02 06:44:09;;;;;;;11.20;10.10;;;;;;;4.58;67.38;100722.19;120758;1164;22600;-77
2021/04/02 06:46:39;;;;;;;12.65;11.10;;;;;;;4.58;67.11;100724.80;120922;1164;22603;-76
2021/04/02 06:49:23;;;;;;;11.88;10.60;;;;;;;4.57;67.04;100719.71;121159;1162;24446;-77
2021/04/02 06:51:54;;;;;;;11.75;10.45;;;;;;;4.57;67.14;100720.53;121146;1161;22678;-77
2021/04/02 06:54:27;;;;;;;13.03;11.68;;;;;;;4.60;67.07;100719.44;121460;1158;25845;-77
2021/04/02 06:57:07;;;;;;;12.23;11.00;;;;;;;4.62;67.17;100717.55;122087;1152;22536;-76
2021/04/02 06:59:36;;;;;;;11.10;9.85;;;;;;;4.64;67.23;100721.72;122299;1152;22531;-74
2021/04/02 07:02:05;;;;;;;11.23;10.23;;;;;;;4.70;67.12;100723.86;122016;1158;22616;-76
2021/04/02 07:04:34;;;;;;;11.90;10.68;;;;;;;4.74;66.90;100719.21;121604;1156;22575;-73
2021/04/02 07:07:06;;;;;;;10.55;9.58;;;;;;;4.78;66.50;100717.18;121690;1155;23058;-74
2021/04/02 07:09:40;;;;;;;10.95;9.63;;;;;;;4.81;66.43;100719.56;121696;1155;22552;-74
2021/04/02 07:12:10;;;;;;;10.23;9.23;;;;;;;4.83;66.26;100722.87;122003;1154;22585;-73
2021/04/02 07:14:40;;;;;;;12.00;10.00;;;;;;;4.86;66.09;100720.01;121474;1158;22579;-74
2021/04/02 07:17:08;;;;;;;15.45;11.25;;;;;;;4.87;65.85;100711.22;121491;1157;22706;-73
2021/04/02 07:19:38;;;;;;;13.35;12.23;;;;;;;4.89;65.79;100714.53;121458;1158;24709;-73
2021/04/02 07:22:08;;;;;;;11.58;10.48;;;;;;;4.90;65.62;100721.45;121514;1158;22575;-73
2021/04/02 07:24:36;;;;;;;12.70;11.47;;;;;;;4.92;65.31;100720.35;121581;1158;22865;-75
2021/04/02 07:27:05;;;;;;;11.60;10.38;;;;;;;4.97;65.44;100716.56;121572;1155;23655;-75
2021/04/02 07:29:35;;;;;;;10.07;9.10;;;;;;;5.01;65.04;100718.80;121985;1155;22569;-73
2021/04/02 07:32:05;;;;;;;11.03;10.05;;;;;;;5.06;65.31;100721.03;122036;1154;24693;-74
2021/04/02 07:34:37;;;;;;;9.60;8.63;;;;;;;5.13;64.74;100723.06;122205;1152;22555;-73
2021/04/02 07:37:06;;;;;;;11.10;10.05;;;;;;;5.27;64.87;100721.11;122114;1152;22553;-74
2021/04/02 07:39:35;;;;;;;11.03;10.10;;;;;;;5.36;64.33;100718.55;122093;1152;22627;-74
2021/04/02 07:42:04;;;;;;;13.73;12.43;;;;;;;5.44;64.05;100725.80;122011;1152;22537;-73
2021/04/02 07:44:41;;;;;;;11.15;9.13;;;;;;;5.49;63.41;100717.56;122211;1152;22902;-74
2021/04/02 07:47:13;;;;;;;10.28;9.25;;;;;;;5.54;63.21;100726.71;122561;1152;23029;-73
2021/04/02 07:49:47;;;;;;;12.35;11.35;;;;;;;5.68;63.22;100733.44;122281;1152;22539;-73
2021/04/02 07:52:16;;;;;;;11.80;10.57;;;;;;;5.85;62.71;100729.41;122193;1152;23438;-73
2021/04/02 07:54:46;;;;;;;12.38;11.38;;;;;;;6.01;62.20;100729.83;122213;1152;24707;-74
2021/04/02 07:57:16;;;;;;;12.40;11.33;;;;;;;6.28;62.00;100731.08;122206;1152;23029;-75
2021/04/02 07:59:47;;;;;;;13.10;12.03;;;;;;;6.49;61.54;100733.65;122245;1154;22544;-75
2021/04/02 08:02:29;;;;;;;15.55;12.88;;;;;;;6.64;60.95;100734.96;122381;1152;22539;-76
2021/04/02 08:04:58;;;;;;;;;;;;;;;6.82;61.53;100737.77;122227;1156;24708;-75
2021/04/02 08:07:46;;;;;;;15.38;13.55;;;;;;;7.22;61.71;100742.97;122364;1152;21346;-74
2021/04/02 08:10:16;;;;;;;14.75;13.25;;;;;;;7.57;60.50;100730.28;122209;1153;22537;-74
2021/04/02 08:12:44;;;;;;;14.60;13.50;;;;;;;8.05;61.01;100740.72;122136;1153;22542;-74
2021/04/02 08:15:16;;;;;;;14.63;13.35;;;;;;;8.74;60.72;100739.55;122125;1152;22849;-74
2021/04/02 08:17:47;;;;;;;14.10;12.88;;;;;;;9.47;59.26;100738.68;122301;1152;22544;-74
2021/04/02 08:20:22;;;;;;;14.03;12.75;;;;;;;10.04;57.00;100737.31;122279;1152;23320;-74
2021/04/02 08:22:51;;;;;;;13.05;11.95;;;;;;;10.57;55.64;100731.04;122141;1153;23435;-74
2021/04/02 08:25:22;;;;;;;14.43;13.23;;;;;;;11.10;53.98;100742.30;122182;1152;22541;-74
2021/04/02 08:27:50;;;;;;;12.90;11.63;;;;;;;11.36;52.38;100743.98;122226;1152;22647;-74
2021/04/02 08:30:19;;;;;;;12.63;11.63;;;;;;;11.43;51.03;100748.47;122147;1152;24423;-74
2021/04/02 08:32:51;;;;;;;13.35;12.13;;;;;;;11.37;50.01;100737.72;122190;1152;23320;-73
2021/04/02 08:35:20;;;;;;;11.23;10.28;;;;;;;11.48;50.62;100745.32;122219;1152;22538;-74
2021/04/02 08:38:06;;;;;;;13.03;11.93;;;;;;;11.81;50.48;100735.58;122229;1152;22626;-73
2021/04/02 08:40:38;;;;;;;13.85;12.55;;;;;;;12.28;50.09;100734.05;122365;1152;22564;-74
2021/04/02 08:43:12;;;;;;;13.03;11.93;;;;;;;12.73;49.16;100736.06;122243;1152;22542;-73
2021/04/02 08:46:00;;;;;;;12.85;10.53;;;;;;;13.03;47.86;100739.72;122233;1151;24693;-73
2021/04/02 08:48:28;;;;;;;12.83;11.63;;;;;;;13.28;47.24;100736.95;122204;1152;22554;-74
2021/04/02 08:50:57;;;;;;;11.77;10.60;;;;;;;13.38;46.18;100732.23;122213;1152;22543;-74
2021/04/02 08:53:40;;;;;;;11.45;10.38;;;;;;;13.63;46.42;100732.89;122377;1152;22587;-73
2021/04/02 08:56:08;;;;;;;12.28;11.18;;;;;;;13.88;45.77;100718.38;122100;1152;22528;-74
2021/04/02 08:58:36;;;;;;;12.05;10.85;;;;;;;13.83;44.42;100725.25;122096;1152;22545;-74
2021/04/02 09:01:04;;;;;;;13.00;11.65;;;;;;;13.67;44.18;100726.20;122363;1152;22538;-74
2021/04/02 09:03:33;;;;;;;12.25;10.68;;;;;;;13.46;43.94;100723.38;122004;1155;25186;-73
2021/04/02 09:06:05;;;;;;;12.70;10.63;;;;;;;13.24;43.88;100727.66;121781;1155;22549;-73
2021/04/02 09:08:36;;;;;;;10.30;9.40;;;;;;;12.98;44.01;100714.72;122013;1155;22546;-74
2021/04/02 09:11:13;;;;;;;10.43;9.00;;;;;;;12.98;44.49;100720.02;121719;1155;22544;-73
2021/04/02 09:13:44;;;;;;;9.85;8.95;;;;;;;13.22;44.66;100711.08;121719;1155;22541;-74
2021/04/02 09:16:16;;;;;;;10.03;9.20;;;;;;;13.40;44.13;100715.13;121988;1155;22549;-76
2021/04/02 09:19:04;;;;;;;;;;;;;;;13.50;43.04;100714.90;121569;1159;22574;-77
2021/04/02 09:21:54;;;;;;;8.97;8.27;;;;;;;13.69;44.02;100702.13;121813;1155;21342;-76
2021/04/02 09:24:22;;;;;;;;;;;;;;;13.92;43.66;100699.42;122057;1158;22566;-76
2021/04/02 09:26:51;;;;;;;9.50;8.53;;;;;;;14.15;43.44;100702.02;122058;1156;21349;-76
2021/04/02 09:29:20;;;;;;;8.35;7.65;;;;;;;14.39;42.39;100699.08;121762;1155;25182;-76
2021/04/02 09:31:52;;;;;;;10.10;9.10;;;;;;;14.62;42.09;100700.84;122021;1155;22652;-76
2021/04/02 09:34:20;;;;;;;9.15;6.70;;;;;;;14.61;41.17;100697.36;121576;1155;24512;-74
2021/04/02 09:36:49;;;;;;;11.23;8.20;;;;;;;14.85;41.79;100690.06;121518;1155;22606;-74
2021/04/02 09:39:24;;;;;;;7.93;7.23;;;;;;;15.08;40.86;100689.91;121909;1155;22559;-74
2021/04/02 09:41:55;;;;;;;7.85;7.05;;;;;;;15.17;40.57;100686.13;121404;1158;22585;-75
2021/04/02 09:44:28;;;;;;;7.37;6.77;;;;;;;15.21;40.27;100684.72;121496;1158;22773;-75
2021/04/02 09:47:09;;;;;;;8.95;6.65;;;;;;;15.21;40.17;100674.89;121536;1158;22583;-76
2021/04/02 09:49:37;;;;;;;7.00;6.40;;;;;;;15.23;39.66;100669.39;121481;1158;22962;-74
2021/04/02 09:52:08;;;;;;;8.18;7.38;;;;;;;15.23;39.45;100677.38;121600;1158;22572;-75
2021/04/02 09:54:38;;;;;;;8.20;7.50;;;;;;;15.27;39.70;100670.66;121679;1155;22543;-75
2021/04/02 09:57:09;;;;;;;9.80;8.10;;;;;;;15.34;39.22;100668.88;122100;1155;22545;-75
2021/04/02 09:59:38;;;;;;;7.90;7.13;;;;;;;15.35;39.26;100667.03;122125;1152;22692;-76
2021/04/02 10:02:07;;;;;;;7.70;6.68;;;;;;;15.41;39.11;100667.09;122305;1152;22546;-75
2021/04/02 10:04:35;;;;;;;12.53;7.47;;;;;;;15.45;38.41;100663.02;121709;1155;22683;-75
2021/04/02 10:07:04;;;;;;;7.58;6.90;;;;;;;15.52;38.88;100658.57;121773;1154;22703;-75
2021/04/02 10:09:32;;;;;;;7.50;6.80;;;;;;;15.45;38.15;100662.20;121516;1158;22587;-74
2021/04/02 10:12:00;;;;;;;7.17;6.57;;;;;;;15.53;38.48;100649.59;121257;1159;22605;-74
2021/04/02 10:14:29;;;;;;;7.48;6.03;;;;;;;15.79;37.67;100653.48;121524;1158;23478;-75
2021/04/02 10:16:57;;;;;;;12.25;6.58;;;;;;;15.88;37.10;100641.66;121526;1158;22564;-74
2021/04/02 10:19:27;;;;;;;8.15;7.23;;;;;;;16.03;37.45;100638.05;121528;1158;24547;-75
2021/04/02 10:22:00;;;;;;;7.68;7.00;;;;;;;16.07;36.72;100641.98;121546;1156;22756;-75
2021/04/02 10:24:28;;;;;;;12.30;7.57;;;;;;;16.12;37.51;100640.36;122002;1155;22631;-75
2021/04/02 10:26:58;;;;;;;10.68;8.45;;;;;;;16.05;36.44;100639.50;121659;1154;22566;-74
2021/04/02 10:29:27;;;;;;;8.10;7.40;;;;;;;16.08;36.78;100638.30;122146;1152;23644;-75
2021/04/02 10:31:56;;;;;;;10.13;9.23;;;;;;;16.15;36.17;100633.81;122113;1155;22533;-75
2021/04/02 10:34:24;;;;;;;8.30;7.60;;;;;;;16.26;36.32;100641.27;122196;1152;24687;-75
2021/04/02 10:36:55;;;;;;;9.03;8.13;;;;;;;16.35;35.74;100626.73;122045;1154;22549;-76
2021/04/02 10:39:23;;;;;;;9.17;8.27;;;;;;;16.52;35.77;100631.72;122185;1152;22540;-75
2021/04/02 10:41:51;;;;;;;9.63;8.45;;;;;;;16.63;35.30;100633.83;122383;1152;22548;-75
2021/04/02 10:44:20;;;;;;;8.80;8.00;;;;;;;16.59;34.66;100628.04;122400;1152;22545;-74
2021/04/02 10:46:48;;;;;;;11.83;10.25;;;;;;;16.51;34.37;100627.42;122103;1152;25181;-75
2021/04/02 10:49:16;;;;;;;10.03;9.13;;;;;;;16.41;34.16;100617.94;122080;1152;22548;-76
2021/04/02 10:51:45;;;;;;;10.40;9.40;;;;;;;16.17;34.79;100619.28;122054;1152;24422;-74
2021/04/02 10:54:13;;;;;;;10.90;9.90;;;;;;;15.89;34.88;100615.83;122073;1154;25647;-76
2021/04/02 10:56:41;;;;;;;12.30;11.30;;;;;;;15.70;35.34;100609.39;122077;1152;22547;-75
2021/04/02 10:59:10;;;;;;;11.98;10.93;;;;;;;15.59;35.21;100601.88;122192;1155;22540;-74
2021/04/02 11:01:38;;;;;;;11.55;10.45;;;;;;;15.29;35.31;100613.56;122193;1154;22555;-74
2021/04/02 11:04:06;;;;;;;11.10;10.03;;;;;;;14.74;35.57;100600.96;122222;1152;22547;-75
2021/04/02 11:06:34;;;;;;;11.70;10.13;;;;;;;14.33;35.92;100596.19;122120;1152;22548;-75
2021/04/02 11:09:03;;;;;;;12.73;11.63;;;;;;;13.98;36.92;100587.97;122367;1152;24689;-74
2021/04/02 11:11:32;;;;;;;11.78;10.88;;;;;;;13.68;37.51;100583.67;122056;1155;22555;-75
2021/04/02 11:14:00;;;;;;;12.58;11.25;;;;;;;13.45;37.85;100581.90;122008;1155;23349;-74
2021/04/02 11:16:28;;;;;;;13.10;11.65;;;;;;;13.23;38.10;100583.58;121983;1154;22557;-77
2021/04/02 11:18:57;;;;;;;11.78;10.68;;;;;;;12.91;38.44;100582.01;121676;1155;22556;-74
2021/04/02 11:21:25;;;;;;;12.15;10.93;;;;;;;12.70;38.53;100575.53;122111;1155;22554;-75
2021/04/02 11:23:53;;;;;;;13.10;12.00;;;;;;;12.45;38.83;100571.38;122071;1155;22594;-74
2021/04/02 11:26:23;;;;;;;13.17;11.97;;;;;;;12.20;39.22;100563.56;121458;1156;22702;-78
2021/04/02 11:28:53;;;;;;;14.33;13.00;;;;;;;11.99;39.75;100558.02;121481;1157;22567;-75
2021/04/02 11:31:22;;;;;;;14.20;12.80;;;;;;;11.86;40.38;100555.09;121505;1155;22217;-74
2021/04/02 11:33:50;;;;;;;13.25;11.70;;;;;;;11.74;40.55;100552.80;121972;1158;24436;-74
2021/04/02 11:36:18;;;;;;;11.40;10.40;;;;;;;11.58;40.63;100550.19;121642;1155;24756;-74
2021/04/02 11:38:47;;;;;;;10.53;9.63;;;;;;;11.44;40.88;100546.42;121612;1156;22679;-74
2021/04/02 11:41:16;;;;;;;11.10;9.80;;;;;;;11.37;40.84;100539.34;121146;1160;22571;-74